Time;durP1;ratioP1;P1;durP2;ratioP2;P2;SDS_P1;SDS_P2;PMS_P1;PMS_P2;Temp;Humidity;BMP_temperature;BMP_pressure;BME280_temperature;BME280_humidity;BME280_pressure;Samples;Min_cycle;Max_cycle;Signal;HPM_P1;HPM_P2
2021/05/17 00:00:37;;;;;;;5.25;1.35;;;;;;;;;;5053120;28;20182;-79
2021/05/17 00:03:04;;;;;;;4.40;1.70;;;;;;;;;;5053111;28;20194;-79
2021/05/17 00:05:30;;;;;;;1.98;1.20;;;;;;;;;;5053519;28;20185;-77
2021/05/17 00:07:57;;;;;;;5.10;1.98;;;;;;;;;;5065991;28;20181;-77
2021/05/17 00:10:23;;;;;;;4.57;1.25;;;;;;;;;;5047881;28;20256;-80
2021/05/17 00:12:50;;;;;;;4.13;1.75;;;;;;;;;;5050861;28;20206;-77
2021/05/17 00:15:17;;;;;;;3.90;1.45;;;;;;;;;;5073860;28;20189;-78
2021/05/17 00:17:43;;;;;;;7.13;1.92;;;;;;;;;;5053230;28;20174;-77
2021/05/17 00:20:10;;;;;;;6.22;1.40;;;;;;;;;;5048525;28;20181;-78
2021/05/17 00:22:36;;;;;;;7.20;2.80;;;;;;;;;;5079253;28;20741;-79
2021/05/17 00:25:03;;;;;;;6.65;1.90;;;;;;;;;;5063122;28;20188;-78
2021/05/17 00:27:29;;;;;;;6.22;2.10;;;;;;;;;;5062760;28;20260;-79
2021/05/17 00:29:55;;;;;;;6.07;1.60;;;;;;;;;;5073723;28;20205;-77
2021/05/17 00:32:21;;;;;;;7.38;2.00;;;;;;;;;;5052528;28;20212;-79
2021/05/17 00:34:47;;;;;;;3.42;1.77;;;;;;;;;;5049675;28;20211;-80
2021/05/17 00:37:13;;;;;;;7.72;1.80;;;;;;;;;;5063952;28;20181;-78
2021/05/17 00:39:41;;;;;;;9.63;2.00;;;;;;;;;;5059663;28;20178;-77
2021/05/17 00:42:07;;;;;;;5.97;2.58;;;;;;;;;;5072060;28;20212;-77
2021/05/17 00:44:33;;;;;;;5.55;1.80;;;;;;;;;;5052601;28;20181;-79
2021/05/17 00:46:59;;;;;;;7.50;1.75;;;;;;;;;;5049963;28;20186;-79
2021/05/17 00:49:26;;;;;;;5.00;1.73;;;;;;;;;;5048579;28;20180;-77
2021/05/17 00:51:52;;;;;;;9.02;2.05;;;;;;;;;;5053853;28;20369;-78
2021/05/17 00:54:18;;;;;;;5.88;1.95;;;;;;;;;;5070422;28;20189;-82
2021/05/17 00:56:44;;;;;;;8.63;2.30;;;;;;;;;;5052156;28;20200;-77
2021/05/17 00:59:10;;;;;;;13.25;2.28;;;;;;;;;;5059338;28;20182;-78
2021/05/17 01:01:36;;;;;;;6.25;1.42;;;;;;;;;;5062625;28;20192;-80
2021/05/17 01:04:02;;;;;;;7.73;2.17;;;;;;;;;;5050200;28;20182;-77
2021/05/17 01:06:29;;;;;;;8.32;1.65;;;;;;;;;;5074311;28;20471;-76
2021/05/17 01:08:59;;;;;;;5.53;1.60;;;;;;;;;;5058828;28;20624;-77
2021/05/17 01:11:27;;;;;;;3.85;1.88;;;;;;;;;;5061688;28;20195;-76
2021/05/17 01:13:56;;;;;;;5.05;2.17;;;;;;;;;;5049014;28;20183;-76
2021/05/17 01:16:22;;;;;;;7.00;2.15;;;;;;;;;;5047536;28;20170;-76
2021/05/17 01:18:48;;;;;;;6.40;1.75;;;;;;;;;;5051350;28;20224;-76
2021/05/17 01:21:16;;;;;;;13.60;2.10;;;;;;;;;;5051405;28;20194;-76
2021/05/17 01:26:10;;;;;;;11.68;2.35;;;;;;;;;;5051030;28;20193;-78
2021/05/17 01:28:37;;;;;;;5.03;1.75;;;;;;;;;;5046939;28;20193;-76
2021/05/17 01:31:04;;;;;;;9.07;2.33;;;;;;;;;;5061971;28;20181;-76
2021/05/17 01:33:34;;;;;;;10.23;2.15;;;;;;;;;;5053099;28;20522;-76
2021/05/17 01:36:01;;;;;;;8.98;2.05;;;;;;;;;;5067475;28;20200;-76
2021/05/17 01:38:28;;;;;;;6.32;1.67;;;;;;;;;;5049129;28;20177;-78
2021/05/17 01:40:54;;;;;;;8.18;2.42;;;;;;;;;;5060622;28;20563;-77
2021/05/17 01:43:21;;;;;;;7.47;1.92;;;;;;;;;;5059843;28;20177;-77
2021/05/17 01:45:47;;;;;;;6.65;2.13;;;;;;;;;;5059879;28;20244;-76
2021/05/17 01:48:14;;;;;;;5.55;2.28;;;;;;;;;;5062665;28;20219;-75
2021/05/17 01:50:40;;;;;;;7.80;2.72;;;;;;;;;;5059409;28;20240;-77
2021/05/17 01:53:06;;;;;;;6.22;2.10;;;;;;;;;;5065458;28;20201;-77
2021/05/17 01:55:33;;;;;;;4.53;1.77;;;;;;;;;;5046475;28;20177;-75
2021/05/17 01:58:17;;;;;;;4.95;2.38;;;;;;;;;;5049859;28;20184;-75
2021/05/17 02:00:43;;;;;;;6.40;2.00;;;;;;;;;;5051239;28;20652;-76
2021/05/17 02:03:10;;;;;;;6.80;3.17;;;;;;;;;;5066813;28;20186;-75
2021/05/17 02:05:36;;;;;;;9.65;2.78;;;;;;;;;;5051818;28;20173;-77
2021/05/17 02:08:03;;;;;;;10.07;2.35;;;;;;;;;;5065069;28;20446;-75
2021/05/17 02:10:30;;;;;;;9.27;2.65;;;;;;;;;;5061774;28;20241;-75
2021/05/17 02:12:57;;;;;;;6.97;2.03;;;;;;;;;;5049779;28;20544;-75
2021/05/17 02:15:24;;;;;;;6.38;1.90;;;;;;;;;;5051996;28;20186;-77
2021/05/17 02:18:02;;;;;;;13.13;2.67;;;;;;;;;;5051614;28;20227;-76
2021/05/17 02:20:30;;;;;;;8.75;3.13;;;;;;;;;;5051913;28;20189;-76
2021/05/17 02:22:56;;;;;;;8.90;2.00;;;;;;;;;;5046689;28;20666;-75
2021/05/17 02:25:22;;;;;;;6.57;1.75;;;;;;;;;;5059642;28;20181;-79
2021/05/17 02:27:48;;;;;;;6.53;1.83;;;;;;;;;;5050660;28;20181;-77
2021/05/17 02:30:15;;;;;;;6.07;2.10;;;;;;;;;;5067028;28;20277;-76
2021/05/17 02:32:41;;;;;;;11.40;2.60;;;;;;;;;;5058142;28;20209;-75
2021/05/17 02:35:07;;;;;;;12.35;2.10;;;;;;;;;;5054142;28;20181;-76
2021/05/17 02:37:34;;;;;;;8.38;2.30;;;;;;;;;;5046061;28;20193;-76
2021/05/17 02:40:04;;;;;;;10.40;2.35;;;;;;;;;;5048663;28;20205;-75
2021/05/17 02:42:33;;;;;;;8.90;1.98;;;;;;;;;;5061855;28;20193;-74
2021/05/17 02:44:59;;;;;;;6.32;1.88;;;;;;;;;;5060813;28;20643;-75
2021/05/17 02:47:25;;;;;;;6.80;2.22;;;;;;;;;;5054641;28;20264;-76
2021/05/17 02:49:53;;;;;;;6.78;1.65;;;;;;;;;;5051212;28;20185;-75
2021/05/17 02:52:19;;;;;;;11.60;2.25;;;;;;;;;;5049786;28;20199;-76
2021/05/17 02:54:54;;;;;;;6.75;1.65;;;;;;;;;;5053245;28;20245;-74
2021/05/17 02:57:26;;;;;;;5.95;2.22;;;;;;;;;;5059414;28;20200;-77
2021/05/17 03:00:07;;;;;;;7.28;2.30;;;;;;;;;;5060616;28;20189;-77
2021/05/17 03:02:39;;;;;;;8.07;2.13;;;;;;;;;;5052299;28;20186;-76
2021/05/17 03:05:05;;;;;;;7.82;2.45;;;;;;;;;;5065947;28;20180;-77
2021/05/17 03:07:34;;;;;;;7.63;1.90;;;;;;;;;;5049664;28;20182;-75
2021/05/17 03:10:01;;;;;;;9.32;2.13;;;;;;;;;;5060884;28;20216;-75
2021/05/17 03:12:28;;;;;;;3.30;2.10;;;;;;;;;;5055396;28;20209;-76
2021/05/17 03:14:55;;;;;;;8.38;1.75;;;;;;;;;;5055072;28;20205;-75
2021/05/17 03:17:21;;;;;;;8.75;1.90;;;;;;;;;;5052188;28;20181;-76
2021/05/17 03:19:47;;;;;;;3.58;1.70;;;;;;;;;;5056478;28;20177;-75
2021/05/17 03:22:13;;;;;;;6.93;2.10;;;;;;;;;;5064396;28;20209;-78
2021/05/17 03:24:40;;;;;;;12.20;1.92;;;;;;;;;;5060963;28;20439;-76
2021/05/17 03:27:09;;;;;;;7.38;1.90;;;;;;;;;;5058435;28;20190;-75
2021/05/17 03:29:35;;;;;;;4.55;1.85;;;;;;;;;;5053486;28;20182;-76
2021/05/17 03:32:01;;;;;;;10.80;2.15;;;;;;;;;;5052381;28;20752;-75
2021/05/17 03:34:27;;;;;;;8.30;1.67;;;;;;;;;;5048721;28;20174;-76
2021/05/17 03:36:52;;;;;;;8.57;2.07;;;;;;;;;;5062876;28;20169;-76
2021/05/17 03:39:18;;;;;;;8.87;1.93;;;;;;;;;;5055676;28;20462;-75
2021/05/17 03:41:44;;;;;;;5.93;1.80;;;;;;;;;;5069695;28;20969;-75
2021/05/17 03:44:10;;;;;;;5.03;1.53;;;;;;;;;;5060826;28;20445;-75
2021/05/17 03:46:36;;;;;;;4.47;1.50;;;;;;;;;;5049123;28;20553;-75
2021/05/17 03:49:02;;;;;;;3.00;1.60;;;;;;;;;;5064991;28;20450;-75
2021/05/17 03:51:28;;;;;;;8.98;2.40;;;;;;;;;;5060204;28;20454;-78
2021/05/17 03:53:54;;;;;;;5.87;1.70;;;;;;;;;;5059684;28;20196;-75
2021/05/17 03:56:20;;;;;;;5.67;1.93;;;;;;;;;;5064694;28;20439;-74
2021/05/17 03:58:46;;;;;;;4.73;1.10;;;;;;;;;;5065110;28;20432;-75
2021/05/17 04:01:12;;;;;;;3.25;2.00;;;;;;;;;;5049487;28;20420;-75
2021/05/17 04:03:38;;;;;;;5.43;1.60;;;;;;;;;;5060220;28;20184;-74
2021/05/17 04:14:19;;;;;;;5.50;1.40;;;;;;;;;;5041667;28;20197;-76
2021/05/17 04:16:45;;;;;;;7.97;1.80;;;;;;;;;;5042160;28;20186;-78
2021/05/17 04:19:12;;;;;;;9.27;1.20;;;;;;;;;;5042923;28;20427;-74
2021/05/17 04:21:38;;;;;;;248.75;71.20;;;;;;;;;;5042100;28;20455;-75
2021/05/17 04:24:04;;;;;;;3.47;1.45;;;;;;;;;;5041234;28;20190;-75
2021/05/17 04:26:30;;;;;;;5.95;1.35;;;;;;;;;;5041976;28;20201;-75
2021/05/17 04:28:56;;;;;;;5.60;1.33;;;;;;;;;;5042044;28;20407;-75
2021/05/17 04:31:22;;;;;;;5.00;1.50;;;;;;;;;;5041885;28;20429;-75
2021/05/17 04:33:48;;;;;;;3.47;1.17;;;;;;;;;;5041173;28;20527;-76
2021/05/17 04:36:14;;;;;;;5.30;1.80;;;;;;;;;;5024516;28;20436;-76
2021/05/17 04:38:40;;;;;;;2.70;1.30;;;;;;;;;;5041842;28;20479;-75
2021/05/17 04:41:06;;;;;;;6.45;1.77;;;;;;;;;;5040722;28;20178;-75
2021/05/17 04:43:32;;;;;;;3.88;1.60;;;;;;;;;;5041858;28;20362;-74
2021/05/17 04:45:58;;;;;;;5.97;2.20;;;;;;;;;;5053974;28;20637;-73
2021/05/17 04:48:24;;;;;;;9.35;1.67;;;;;;;;;;5053661;28;20189;-75
2021/05/17 04:50:50;;;;;;;16.53;1.97;;;;;;;;;;5052475;28;20253;-75
2021/05/17 04:53:16;;;;;;;5.18;2.20;;;;;;;;;;5052473;28;20466;-76
2021/05/17 04:55:42;;;;;;;4.28;1.30;;;;;;;;;;5063467;28;20559;-76
2021/05/17 04:58:09;;;;;;;3.67;1.30;;;;;;;;;;5060369;28;20176;-76
2021/05/17 05:00:35;;;;;;;2.97;1.40;;;;;;;;;;5056702;28;20173;-74
2021/05/17 05:03:01;;;;;;;6.57;2.20;;;;;;;;;;5057180;28;20189;-75
2021/05/17 05:05:27;;;;;;;4.68;1.95;;;;;;;;;;5051242;28;20192;-73
2021/05/17 05:07:53;;;;;;;12.88;1.75;;;;;;;;;;5064280;28;20242;-74
2021/05/17 05:10:19;;;;;;;5.35;1.80;;;;;;;;;;5047018;28;20288;-75
2021/05/17 05:12:45;;;;;;;6.30;2.20;;;;;;;;;;5050739;28;20284;-74
2021/05/17 05:15:11;;;;;;;4.40;1.63;;;;;;;;;;5067362;28;20463;-78
2021/05/17 05:17:37;;;;;;;3.28;1.33;;;;;;;;;;5067223;28;20437;-74
2021/05/17 05:20:04;;;;;;;4.45;1.52;;;;;;;;;;5065924;28;20173;-72
2021/05/17 05:22:30;;;;;;;8.48;2.13;;;;;;;;;;5047315;28;20212;-74
2021/05/17 05:24:57;;;;;;;4.55;1.92;;;;;;;;;;5062210;28;20192;-74
2021/05/17 05:28:05;;;;;;;5.35;2.35;;;;;;;;;;5054169;28;20182;-74
2021/05/17 05:30:23;;;;;;;3.25;1.10;;;;;;;;;;5050937;28;20268;-75
2021/05/17 05:35:18;;;;;;;4.53;1.45;;;;;;;;;;5052093;28;20678;-74
2021/05/17 05:37:44;;;;;;;5.90;1.63;;;;;;;;;;5047392;28;20598;-74
2021/05/17 05:40:10;;;;;;;9.80;1.92;;;;;;;;;;5059682;28;20181;-74
2021/05/17 05:42:36;;;;;;;4.90;1.60;;;;;;;;;;5051951;28;20187;-74
2021/05/17 05:45:05;;;;;;;2.88;1.50;;;;;;;;;;5051393;28;20248;-74
2021/05/17 05:47:31;;;;;;;7.82;1.42;;;;;;;;;;5051385;28;20598;-74
2021/05/17 05:49:57;;;;;;;6.85;2.00;;;;;;;;;;5069336;28;20177;-73
2021/05/17 05:52:23;;;;;;;2.50;1.43;;;;;;;;;;5053950;28;20236;-77
2021/05/17 05:54:50;;;;;;;3.60;1.40;;;;;;;;;;5050702;28;20424;-77
2021/05/17 05:57:17;;;;;;;7.93;1.55;;;;;;;;;;5057617;28;20427;-75
2021/05/17 05:59:43;;;;;;;2.17;1.40;;;;;;;;;;5057225;28;20180;-75
2021/05/17 06:02:09;;;;;;;8.25;1.80;;;;;;;;;;5058780;28;20189;-74
2021/05/17 06:04:35;;;;;;;3.75;1.10;;;;;;;;;;5055585;28;20185;-74
2021/05/17 06:07:01;;;;;;;3.77;1.57;;;;;;;;;;5065514;28;20192;-77
2021/05/17 06:09:27;;;;;;;5.68;1.30;;;;;;;;;;5059548;28;20518;-76
2021/05/17 06:11:55;;;;;;;3.63;1.55;;;;;;;;;;5060282;28;20223;-78
2021/05/17 06:14:23;;;;;;;5.40;1.45;;;;;;;;;;5062004;28;20181;-75
2021/05/17 06:16:49;;;;;;;4.90;1.30;;;;;;;;;;5062281;28;20196;-76
2021/05/17 06:19:15;;;;;;;4.30;1.75;;;;;;;;;;5066411;28;20212;-76
2021/05/17 06:21:41;;;;;;;5.65;1.98;;;;;;;;;;5065909;28;20184;-75
2021/05/17 06:24:10;;;;;;;2.70;1.10;;;;;;;;;;5065759;28;20181;-73
2021/05/17 06:26:38;;;;;;;3.60;1.50;;;;;;;;;;5062934;28;20687;-75
2021/05/17 06:29:04;;;;;;;6.97;1.52;;;;;;;;;;5069278;28;20216;-76
2021/05/17 06:31:30;;;;;;;3.03;1.10;;;;;;;;;;5049904;28;20186;-76
2021/05/17 06:33:56;;;;;;;1.67;1.13;;;;;;;;;;5066193;28;20165;-77
2021/05/17 06:36:22;;;;;;;2.55;1.15;;;;;;;;;;5062528;28;20316;-76
2021/05/17 06:38:50;;;;;;;5.33;1.67;;;;;;;;;;5061438;28;20786;-76
2021/05/17 06:41:16;;;;;;;4.65;1.27;;;;;;;;;;5054535;28;20435;-75
2021/05/17 06:43:42;;;;;;;5.55;1.55;;;;;;;;;;5054121;28;20189;-74
2021/05/17 06:46:09;;;;;;;5.13;1.42;;;;;;;;;;5065494;28;20310;-75
2021/05/17 06:48:42;;;;;;;3.42;1.60;;;;;;;;;;5063306;28;20216;-80
2021/05/17 06:51:13;;;;;;;5.68;1.50;;;;;;;;;;5076728;28;20192;-75
2021/05/17 06:53:40;;;;;;;4.93;1.80;;;;;;;;;;5061959;28;20208;-79
2021/05/17 06:56:09;;;;;;;2.05;1.40;;;;;;;;;;5052165;28;20188;-76
2021/05/17 07:01:23;;;;;;;6.03;1.58;;;;;;;;;;5021113;28;20210;-75
2021/05/17 07:03:50;;;;;;;2.63;1.10;;;;;;;;;;5020475;28;20815;-76
2021/05/17 07:06:28;;;;;;;3.28;1.27;;;;;;;;;;5022315;28;20202;-78
2021/05/17 07:11:47;;;;;;;3.13;1.40;;;;;;;;;;5022735;28;20260;-81
2021/05/17 07:14:13;;;;;;;4.65;1.20;;;;;;;;;;5005302;28;20213;-79
2021/05/17 07:16:40;;;;;;;2.10;1.23;;;;;;;;;;5020778;28;20236;-79
2021/05/17 07:19:06;;;;;;;2.85;1.50;;;;;;;;;;5022895;28;20360;-80
2021/05/17 07:24:19;;;;;;;3.35;1.13;;;;;;;;;;5022224;28;20193;-76
2021/05/17 07:26:45;;;;;;;5.03;1.65;;;;;;;;;;5021283;28;20735;-78
2021/05/17 07:29:11;;;;;;;5.65;1.67;;;;;;;;;;5003340;28;20186;-77
2021/05/17 07:31:37;;;;;;;5.28;1.65;;;;;;;;;;5005393;28;20206;-77
2021/05/17 07:34:03;;;;;;;1.77;1.45;;;;;;;;;;5007273;28;20242;-78
2021/05/17 07:36:29;;;;;;;3.50;1.00;;;;;;;;;;5005202;28;20189;-76
2021/05/17 07:38:55;;;;;;;2.23;1.00;;;;;;;;;;5039115;28;20190;-76
2021/05/17 07:41:21;;;;;;;2.40;1.50;;;;;;;;;;5060818;28;20455;-79
2021/05/17 07:43:48;;;;;;;4.60;1.15;;;;;;;;;;5063223;28;21341;-79
2021/05/17 07:46:14;;;;;;;1.35;1.10;;;;;;;;;;5072409;28;20173;-77
2021/05/17 07:51:26;;;;;;;3.65;1.10;;;;;;;;;;5059334;28;20200;-77
2021/05/17 07:53:53;;;;;;;1.50;1.10;;;;;;;;;;5063728;28;20215;-76
2021/05/17 07:56:19;;;;;;;2.90;0.85;;;;;;;;;;5062660;28;20235;-78
2021/05/17 07:58:45;;;;;;;4.47;1.98;;;;;;;;;;5051847;28;20176;-78
2021/05/17 08:01:11;;;;;;;1.73;1.25;;;;;;;;;;5064629;28;20233;-77
2021/05/17 08:03:37;;;;;;;1.63;1.10;;;;;;;;;;5052946;28;20651;-78
2021/05/17 08:06:04;;;;;;;3.20;0.80;;;;;;;;;;5052499;28;20216;-82
2021/05/17 08:08:30;;;;;;;4.05;1.15;;;;;;;;;;5073183;28;20273;-81
2021/05/17 08:10:56;;;;;;;2.65;1.00;;;;;;;;;;5063261;28;20318;-78
2021/05/17 08:13:22;;;;;;;1.65;1.00;;;;;;;;;;5059716;28;20205;-82
2021/05/17 08:15:48;;;;;;;3.67;1.20;;;;;;;;;;5062775;28;20559;-81
2021/05/17 08:18:14;;;;;;;1.13;0.90;;;;;;;;;;5061932;28;20188;-80
2021/05/17 08:20:40;;;;;;;1.20;0.80;;;;;;;;;;5078714;28;20181;-77
2021/05/17 08:23:07;;;;;;;0.80;0.80;;;;;;;;;;5063476;28;20646;-80
2021/05/17 08:25:33;;;;;;;1.70;0.90;;;;;;;;;;5058115;28;20189;-80
2021/05/17 08:27:59;;;;;;;1.98;0.80;;;;;;;;;;5064290;28;20177;-81
2021/05/17 08:30:29;;;;;;;2.63;0.95;;;;;;;;;;5061021;28;20276;-84
2021/05/17 08:32:55;;;;;;;1.33;0.93;;;;;;;;;;5058544;28;20219;-78
2021/05/17 08:35:21;;;;;;;2.88;1.40;;;;;;;;;;5062672;28;20720;-81
2021/05/17 08:37:47;;;;;;;1.13;0.80;;;;;;;;;;5063691;28;20575;-77
2021/05/17 08:40:14;;;;;;;2.30;1.10;;;;;;;;;;5048062;28;20178;-81
2021/05/17 08:42:43;;;;;;;1.13;0.82;;;;;;;;;;5063652;28;20476;-81
2021/05/17 08:45:09;;;;;;;1.33;1.20;;;;;;;;;;5077912;28;20280;-81
2021/05/17 08:47:36;;;;;;;3.63;0.88;;;;;;;;;;5060481;28;20239;-80
2021/05/17 08:50:02;;;;;;;3.05;0.80;;;;;;;;;;5069897;28;20276;-77
2021/05/17 08:52:29;;;;;;;1.50;0.90;;;;;;;;;;5061751;28;20204;-79
2021/05/17 08:54:55;;;;;;;3.47;1.38;;;;;;;;;;5061008;28;20268;-81
2021/05/17 08:57:21;;;;;;;1.75;0.93;;;;;;;;;;5058747;28;20181;-80
2021/05/17 08:59:47;;;;;;;1.80;1.20;;;;;;;;;;5063214;28;20538;-81
2021/05/17 09:02:13;;;;;;;1.85;0.90;;;;;;;;;;5062633;28;20451;-81
2021/05/17 09:04:39;;;;;;;1.30;0.98;;;;;;;;;;5063162;28;20211;-81
2021/05/17 09:07:05;;;;;;;4.30;1.40;;;;;;;;;;5062660;28;20173;-80
2021/05/17 09:09:31;;;;;;;2.73;1.00;;;;;;;;;;5051955;28;20236;-81
2021/05/17 09:12:03;;;;;;;1.58;1.08;;;;;;;;;;5054993;28;20522;-81
2021/05/17 09:14:32;;;;;;;1.50;0.90;;;;;;;;;;5064735;28;20189;-81
2021/05/17 09:16:58;;;;;;;4.35;1.02;;;;;;;;;;5058406;28;20189;-80
2021/05/17 09:19:25;;;;;;;2.72;1.23;;;;;;;;;;5061510;28;20169;-82
2021/05/17 09:22:06;;;;;;;1.48;0.80;;;;;;;;;;5057311;28;20168;-79
2021/05/17 09:24:33;;;;;;;3.05;0.90;;;;;;;;;;5051037;28;20293;-79
2021/05/17 09:26:59;;;;;;;6.32;1.02;;;;;;;;;;5069818;28;20647;-82
2021/05/17 09:29:27;;;;;;;1.80;1.08;;;;;;;;;;5061959;28;20178;-78
2021/05/17 09:31:53;;;;;;;0.98;0.73;;;;;;;;;;5075986;28;20193;-85
2021/05/17 09:34:19;;;;;;;1.02;0.77;;;;;;;;;;5056833;28;20177;-80
2021/05/17 09:36:47;;;;;;;2.03;1.05;;;;;;;;;;5057963;28;20174;-79
2021/05/17 09:39:13;;;;;;;1.30;0.85;;;;;;;;;;5070185;28;20201;-77
2021/05/17 09:41:48;;;;;;;1.20;0.80;;;;;;;;;;5066434;28;20189;-83
2021/05/17 09:44:14;;;;;;;1.80;0.95;;;;;;;;;;5062272;28;20172;-78
2021/05/17 09:46:56;;;;;;;1.60;1.20;;;;;;;;;;5050157;28;20191;-79
2021/05/17 09:49:31;;;;;;;1.35;0.77;;;;;;;;;;5060015;28;20502;-79
2021/05/17 09:52:08;;;;;;;1.15;0.90;;;;;;;;;;5048307;28;20206;-77
2021/05/17 09:54:47;;;;;;;1.67;1.27;;;;;;;;;;5077287;28;20704;-83
2021/05/17 09:57:20;;;;;;;2.10;1.00;;;;;;;;;;5081290;28;20176;-79
2021/05/17 09:59:47;;;;;;;0.98;0.80;;;;;;;;;;5062395;28;20179;-85
2021/05/17 10:02:26;;;;;;;1.25;0.90;;;;;;;;;;5057315;28;20250;-80
2021/05/17 10:04:52;;;;;;;1.10;1.00;;;;;;;;;;5067011;28;20248;-87
2021/05/17 10:07:19;;;;;;;4.13;1.30;;;;;;;;;;5065997;28;20181;-85
2021/05/17 10:09:45;;;;;;;2.75;1.40;;;;;;;;;;5064563;28;20228;-88
2021/05/17 10:12:11;;;;;;;1.57;1.00;;;;;;;;;;5066473;28;20208;-86
2021/05/17 10:14:37;;;;;;;1.35;1.20;;;;;;;;;;5063673;28;20458;-85
2021/05/17 10:17:03;;;;;;;3.92;1.63;;;;;;;;;;5053127;28;20180;-85
2021/05/17 10:19:30;;;;;;;4.88;1.55;;;;;;;;;;5050788;28;20201;-83
2021/05/17 10:21:56;;;;;;;2.22;1.60;;;;;;;;;;5053853;28;20169;-83
2021/05/17 10:24:22;;;;;;;4.25;1.75;;;;;;;;;;5076433;28;20177;-88
2021/05/17 10:26:49;;;;;;;5.03;1.50;;;;;;;;;;5063010;28;20205;-82
2021/05/17 10:29:15;;;;;;;1.13;1.00;;;;;;;;;;5066109;28;20430;-85
2021/05/17 10:31:51;;;;;;;3.25;1.35;;;;;;;;;;5052825;28;20189;-88
2021/05/17 10:34:17;;;;;;;2.22;1.35;;;;;;;;;;5061482;28;20247;-80
2021/05/17 10:36:58;;;;;;;1.83;1.08;;;;;;;;;;5064030;28;20174;-88
2021/05/17 10:39:37;;;;;;;2.50;1.63;;;;;;;;;;5057020;28;20193;-82
2021/05/17 10:46:36;;;;;;;4.10;1.23;;;;;;;;;;5063630;28;20215;-87
2021/05/17 10:47:37;;;;;;;2.22;1.30;;;;;;;;;;5057032;28;20195;-85
2021/05/17 10:50:11;;;;;;;1.13;0.90;;;;;;;;;;5065968;28;20208;-84
2021/05/17 10:52:37;;;;;;;3.17;1.15;;;;;;;;;;5078026;28;20466;-83
2021/05/17 10:55:07;;;;;;;2.45;1.17;;;;;;;;;;5064950;28;20181;-85
2021/05/17 10:57:40;;;;;;;2.30;1.20;;;;;;;;;;5054498;28;20253;-81
2021/05/17 11:00:24;;;;;;;1.50;1.17;;;;;;;;;;5054875;28;20239;-84
2021/05/17 11:03:11;;;;;;;2.75;1.73;;;;;;;;;;5060798;28;20183;-82
2021/05/17 11:05:38;;;;;;;4.80;1.00;;;;;;;;;;5076354;28;20243;-82
2021/05/17 11:08:07;;;;;;;1.10;0.90;;;;;;;;;;5080623;28;20205;-79
2021/05/17 11:10:34;;;;;;;3.80;1.20;;;;;;;;;;5051029;28;20224;-82
2021/05/17 11:13:01;;;;;;;1.85;0.90;;;;;;;;;;5064138;28;20268;-82
2021/05/17 11:15:28;;;;;;;1.15;0.98;;;;;;;;;;5060704;28;20170;-80
2021/05/17 11:17:57;;;;;;;3.20;1.30;;;;;;;;;;5063468;28;20217;-81
2021/05/17 11:20:39;;;;;;;2.42;0.93;;;;;;;;;;5063228;28;20206;-81
2021/05/17 11:23:11;;;;;;;1.98;1.05;;;;;;;;;;5051840;28;20194;-92
2021/05/17 11:25:50;;;;;;;2.45;1.05;;;;;;;;;;5064506;28;20197;-90
2021/05/17 11:28:17;;;;;;;1.88;0.90;;;;;;;;;;5061691;28;20180;-87
2021/05/17 11:30:44;;;;;;;1.48;0.98;;;;;;;;;;5064435;28;20177;-89
2021/05/17 11:33:13;;;;;;;2.05;1.00;;;;;;;;;;5062931;28;20212;-91
2021/05/17 11:35:59;;;;;;;1.73;0.90;;;;;;;;;;5057792;28;20189;-84
2021/05/17 11:38:25;;;;;;;0.80;0.70;;;;;;;;;;5049031;28;20214;-86
2021/05/17 11:40:51;;;;;;;1.60;0.80;;;;;;;;;;5064023;28;20310;-86
2021/05/17 11:43:18;;;;;;;2.40;0.75;;;;;;;;;;5066036;28;20179;-85
2021/05/17 11:45:44;;;;;;;1.17;1.08;;;;;;;;;;5066121;28;20177;-88
2021/05/17 11:48:10;;;;;;;1.10;1.00;;;;;;;;;;5057458;28;20643;-84
2021/05/17 11:50:36;;;;;;;1.40;0.80;;;;;;;;;;5068052;28;20185;-88
2021/05/17 11:53:03;;;;;;;1.40;1.30;;;;;;;;;;5064654;28;20215;-86
2021/05/17 11:55:29;;;;;;;1.73;1.00;;;;;;;;;;5074487;28;20203;-87
2021/05/17 11:57:56;;;;;;;1.63;0.90;;;;;;;;;;5063571;28;20200;-83
2021/05/17 12:00:25;;;;;;;1.20;0.90;;;;;;;;;;5079680;28;20659;-82
2021/05/17 12:02:55;;;;;;;1.80;1.00;;;;;;;;;;5075117;28;20726;-79
2021/05/17 12:05:22;;;;;;;2.83;1.10;;;;;;;;;;5060696;28;20208;-84
2021/05/17 12:07:53;;;;;;;2.42;1.13;;;;;;;;;;5062650;28;20203;-86
2021/05/17 12:10:19;;;;;;;4.32;1.38;;;;;;;;;;5062834;28;20252;-85
2021/05/17 12:12:45;;;;;;;2.65;1.33;;;;;;;;;;5063632;28;20226;-88
2021/05/17 12:15:22;;;;;;;2.08;1.10;;;;;;;;;;5061516;28;20307;-84
2021/05/17 12:17:48;;;;;;;1.45;0.90;;;;;;;;;;5060989;28;20186;-86
2021/05/17 12:20:16;;;;;;;6.13;1.48;;;;;;;;;;5063078;28;20168;-87
2021/05/17 12:22:51;;;;;;;3.10;1.10;;;;;;;;;;5076447;28;20689;-85
2021/05/17 12:25:18;;;;;;;3.42;1.02;;;;;;;;;;5060900;28;20240;-85
2021/05/17 12:27:45;;;;;;;1.42;1.10;;;;;;;;;;5077564;28;20181;-85
2021/05/17 12:30:11;;;;;;;1.40;1.20;;;;;;;;;;5056336;28;20261;-87
2021/05/17 12:32:39;;;;;;;2.38;0.82;;;;;;;;;;5068639;28;20209;-86
2021/05/17 12:35:08;;;;;;;2.65;0.98;;;;;;;;;;5062615;28;20181;-86
2021/05/17 12:37:36;;;;;;;1.10;1.00;;;;;;;;;;5061406;28;20197;-85
2021/05/17 12:40:14;;;;;;;3.17;0.98;;;;;;;;;;5062246;28;20224;-86
2021/05/17 12:42:42;;;;;;;2.97;1.05;;;;;;;;;;5063946;28;20180;-87
2021/05/17 12:45:09;;;;;;;1.60;1.50;;;;;;;;;;5071814;28;20196;-84
2021/05/17 12:47:39;;;;;;;3.50;1.65;;;;;;;;;;5065960;28;20189;-85
2021/05/17 12:50:05;;;;;;;8.88;1.80;;;;;;;;;;5063406;28;20243;-85
2021/05/17 12:52:33;;;;;;;3.10;1.10;;;;;;;;;;5047093;28;20257;-87
2021/05/17 12:55:11;;;;;;;4.63;2.10;;;;;;;;;;5058220;28;20178;-85
2021/05/17 12:57:43;;;;;;;3.60;2.22;;;;;;;;;;5052934;28;20535;-79
2021/05/17 13:00:09;;;;;;;1.20;1.02;;;;;;;;;;5058053;28;20219;-87
2021/05/17 13:02:35;;;;;;;3.35;1.30;;;;;;;;;;5058638;28;20218;-87
2021/05/17 13:05:01;;;;;;;7.60;2.40;;;;;;;;;;5062837;28;20213;-87
2021/05/17 13:07:27;;;;;;;1.27;0.90;;;;;;;;;;5063740;28;20488;-84
2021/05/17 13:09:57;;;;;;;1.83;1.00;;;;;;;;;;5052984;28;20467;-89
2021/05/17 13:12:23;;;;;;;2.65;1.15;;;;;;;;;;5053834;28;20496;-80
2021/05/17 13:14:49;;;;;;;1.70;0.95;;;;;;;;;;5068169;28;20184;-81
2021/05/17 13:17:16;;;;;;;2.72;0.93;;;;;;;;;;5062339;28;20200;-80
2021/05/17 13:23:18;;;;;;;3.08;1.23;;;;;;;;;;5059277;28;20190;-81
2021/05/17 13:30:56;;;;;;;1.90;1.05;;;;;;;;;;5062639;28;20191;-85
2021/05/17 13:33:30;;;;;;;3.72;1.35;;;;;;;;;;5062491;28;20209;-86
2021/05/17 13:36:07;;;;;;;3.00;1.80;;;;;;;;;;5059676;28;20182;-86
2021/05/17 13:38:35;;;;;;;2.40;2.20;;;;;;;;;;5062580;28;20529;-87
2021/05/17 13:41:01;;;;;;;3.25;1.00;;;;;;;;;;5061891;28;20225;-84
2021/05/17 13:43:27;;;;;;;1.95;1.10;;;;;;;;;;5078328;28;20265;-85
2021/05/17 13:45:54;;;;;;;2.00;0.98;;;;;;;;;;5063238;28;20257;-85
2021/05/17 13:48:19;;;;;;;1.60;0.90;;;;;;;;;;5053713;28;20187;-84
2021/05/17 13:50:46;;;;;;;5.70;1.00;;;;;;;;;;5052288;28;20189;-83
2021/05/17 13:53:12;;;;;;;2.53;1.13;;;;;;;;;;5059630;28;20978;-84
2021/05/17 13:55:38;;;;;;;1.23;1.00;;;;;;;;;;5060747;28;20231;-80
2021/05/17 13:58:04;;;;;;;2.67;1.48;;;;;;;;;;5057476;28;20419;-82
2021/05/17 14:00:30;;;;;;;2.10;1.70;;;;;;;;;;5051871;28;20253;-82
2021/05/17 14:02:56;;;;;;;1.60;0.95;;;;;;;;;;5055729;28;20446;-83
2021/05/17 14:05:23;;;;;;;1.30;1.20;;;;;;;;;;5061529;28;20247;-81
2021/05/17 14:07:49;;;;;;;1.60;1.10;;;;;;;;;;5047087;28;20441;-78
2021/05/17 14:10:15;;;;;;;1.95;1.10;;;;;;;;;;5046322;28;20280;-79
2021/05/17 14:12:41;;;;;;;2.85;1.25;;;;;;;;;;5077735;28;20270;-77
2021/05/17 14:15:10;;;;;;;2.00;1.10;;;;;;;;;;5054971;28;20181;-82
2021/05/17 14:17:36;;;;;;;2.90;1.27;;;;;;;;;;5064861;28;20174;-77
2021/05/17 14:20:03;;;;;;;1.33;0.90;;;;;;;;;;5062383;28;20195;-81
2021/05/17 14:22:29;;;;;;;2.42;1.10;;;;;;;;;;5061687;28;20658;-82
2021/05/17 14:24:55;;;;;;;1.48;0.82;;;;;;;;;;5061054;28;20239;-77
2021/05/17 14:27:22;;;;;;;1.98;1.52;;;;;;;;;;5053523;28;20174;-78
2021/05/17 14:29:48;;;;;;;1.10;0.85;;;;;;;;;;5068110;28;20188;-82
2021/05/17 14:32:14;;;;;;;2.05;1.02;;;;;;;;;;5058384;28;20268;-78
2021/05/17 14:34:40;;;;;;;2.85;1.00;;;;;;;;;;5058041;28;20184;-78
2021/05/17 14:37:08;;;;;;;1.70;0.90;;;;;;;;;;5058731;28;20184;-80
2021/05/17 14:39:34;;;;;;;1.30;0.90;;;;;;;;;;5064685;28;20172;-78
2021/05/17 14:42:00;;;;;;;2.42;1.02;;;;;;;;;;5059499;28;20181;-81
2021/05/17 14:44:29;;;;;;;1.98;1.20;;;;;;;;;;5068324;28;20179;-83
2021/05/17 14:46:55;;;;;;;2.83;0.93;;;;;;;;;;5062907;28;20243;-86
2021/05/17 14:49:21;;;;;;;3.05;1.13;;;;;;;;;;5059506;28;20175;-85
2021/05/17 14:51:47;;;;;;;2.25;1.02;;;;;;;;;;5065519;28;20181;-80
2021/05/17 14:54:14;;;;;;;1.53;1.20;;;;;;;;;;5063337;28;20272;-80
2021/05/17 14:56:40;;;;;;;2.42;1.50;;;;;;;;;;5064617;28;20908;-81
2021/05/17 14:59:06;;;;;;;3.50;1.20;;;;;;;;;;5064347;28;20824;-81
2021/05/17 15:01:32;;;;;;;1.43;1.30;;;;;;;;;;5063388;28;20167;-80
2021/05/17 15:03:58;;;;;;;3.17;1.38;;;;;;;;;;5064953;28;20451;-79
2021/05/17 15:06:25;;;;;;;3.05;1.50;;;;;;;;;;5062930;28;20182;-81
2021/05/17 15:08:51;;;;;;;1.60;1.00;;;;;;;;;;5062621;28;20175;-81
2021/05/17 15:11:17;;;;;;;3.58;1.30;;;;;;;;;;5064273;28;20639;-87
2021/05/17 15:13:43;;;;;;;3.13;1.00;;;;;;;;;;5064720;28;20208;-83
2021/05/17 15:16:10;;;;;;;2.80;1.17;;;;;;;;;;5060037;28;20529;-79
2021/05/17 15:18:36;;;;;;;3.80;1.17;;;;;;;;;;5072272;28;20434;-80
2021/05/17 15:21:02;;;;;;;2.73;1.93;;;;;;;;;;5064385;28;20213;-78